Terminal Aerodrome Forecast
Issued by NWS

Current Version | Previous Version | Graphics & Text | Print | Product List | Glossary Off
Versions: 1 2 3 4 5 6 7 8 9 10 11 12 13 14 15

000
FTUS41 KILN 231720
TAFLCK
TAF
KLCK 231720Z 2318/2418 15010KT 4SM -SHRA OVC050 WS020/17040KT
      TEMPO 2318/2320 2SM SHRA BKN015
     FM232100 20012G20KT P6SM -SHRA OVC050
     FM232300 17012KT P6SM VCSH OVC015
     FM240500 27010KT P6SM VCSH BKN025
     FM241200 22010KT P6SM BKN025
     FM241600 24012G20KT P6SM FEW025 BKN040=

USA.gov is the U.S. government's official web portal to all federal, state and local government web resources and services.